createdAt,value
2023-02-04T00:00:41.788Z,7.93
2023-02-04T00:03:08.168Z,7.97
2023-02-04T00:05:34.578Z,7.94
2023-02-04T00:08:00.977Z,7.96
2023-02-04T00:10:28.896Z,7.87
2023-02-04T00:12:55.460Z,7.93
2023-02-04T00:15:21.771Z,7.83
2023-02-04T00:17:48.071Z,7.95
2023-02-04T00:20:14.568Z,7.89
2023-02-04T00:22:41.139Z,7.84
2023-02-04T00:25:07.855Z,7.74
2023-02-04T00:27:35.662Z,7.80
2023-02-04T00:30:02.027Z,7.66
2023-02-04T00:32:28.409Z,7.61
2023-02-04T00:34:54.713Z,7.74
2023-02-04T00:37:21.042Z,7.82
2023-02-04T00:39:47.364Z,7.85
2023-02-04T00:42:13.704Z,7.73
2023-02-04T00:44:41.385Z,7.65
2023-02-04T00:47:07.900Z,7.75
2023-02-04T00:49:34.341Z,7.62
2023-02-04T00:52:00.682Z,7.67
2023-02-04T00:54:27.188Z,7.70
2023-02-04T00:56:53.491Z,7.72
2023-02-04T00:59:19.789Z,7.61
2023-02-04T01:01:47.450Z,7.58
2023-02-04T01:04:13.827Z,7.58
2023-02-04T01:06:40.177Z,7.52
2023-02-04T01:09:06.722Z,7.53
2023-02-04T01:11:33.067Z,7.61
2023-02-04T01:13:59.653Z,7.63
2023-02-04T01:16:26.280Z,7.66
2023-02-04T01:18:54.197Z,7.59
2023-02-04T01:21:20.485Z,7.55
2023-02-04T01:23:46.819Z,7.42
2023-02-04T01:26:13.163Z,7.34
2023-02-04T01:28:39.451Z,7.31
2023-02-04T01:31:05.784Z,7.26
2023-02-04T01:33:32.119Z,7.22
2023-02-04T01:35:59.760Z,7.21
2023-02-04T01:38:26.262Z,7.16
2023-02-04T01:40:54.406Z,7.09
2023-02-04T01:43:21.163Z,7.12
2023-02-04T01:45:47.788Z,7.05
2023-02-04T01:48:14.319Z,6.99
2023-02-04T01:50:40.602Z,6.89
2023-02-04T01:53:09.159Z,6.85
2023-02-04T01:55:35.503Z,6.80
2023-02-04T01:58:01.836Z,6.73
2023-02-04T02:00:29.061Z,6.69
2023-02-04T02:02:55.694Z,6.65
2023-02-04T02:05:23.562Z,6.60
2023-02-04T02:07:51.004Z,6.56
2023-02-04T02:10:18.848Z,6.54
2023-02-04T02:12:45.754Z,6.53
2023-02-04T02:15:12.830Z,6.53
2023-02-04T02:17:39.752Z,6.55
2023-02-04T02:20:06.322Z,6.53
2023-02-04T02:22:35.508Z,6.47
2023-02-04T02:25:07.707Z,6.44
2023-02-04T02:27:34.043Z,6.43
2023-02-04T02:30:00.382Z,6.40
2023-02-04T02:32:26.813Z,6.37
2023-02-04T02:34:53.216Z,6.36
2023-02-04T02:37:19.516Z,6.33
2023-02-04T02:39:46.035Z,6.32
2023-02-04T02:42:15.067Z,6.29
2023-02-04T02:44:41.862Z,6.26
2023-02-04T02:47:12.378Z,6.22
2023-02-04T02:49:39.309Z,6.21
2023-02-04T02:52:05.702Z,6.19
2023-02-04T02:54:32.506Z,6.18
2023-02-04T02:56:59.320Z,6.17
2023-02-04T02:59:27.027Z,6.17
2023-02-04T03:01:54.714Z,6.16
2023-02-04T03:04:21.737Z,6.17
2023-02-04T03:06:48.311Z,6.15
2023-02-04T03:09:14.639Z,6.16
2023-02-04T03:11:41.057Z,6.15
2023-02-04T03:14:07.436Z,6.15
2023-02-04T03:16:35.975Z,6.15
2023-02-04T03:19:02.898Z,6.15
2023-02-04T03:21:29.286Z,6.16
2023-02-04T03:23:56.140Z,6.18
2023-02-04T03:26:22.522Z,6.16
2023-02-04T03:28:48.941Z,6.15
2023-02-04T03:31:15.338Z,6.14
2023-02-04T03:33:43.051Z,6.13
2023-02-04T03:36:09.739Z,6.10
2023-02-04T03:38:36.115Z,6.07
2023-02-04T03:41:02.454Z,6.05
2023-02-04T03:43:28.854Z,6.03
2023-02-04T03:45:55.179Z,5.97
2023-02-04T03:48:21.517Z,5.94
2023-02-04T03:50:49.250Z,5.91
2023-02-04T03:53:15.579Z,5.85
2023-02-04T03:55:41.906Z,5.86
2023-02-04T03:58:08.192Z,5.88
2023-02-04T04:00:34.496Z,5.86
2023-02-04T04:03:00.898Z,5.77
2023-02-04T04:05:27.328Z,5.77
2023-02-04T04:07:55.002Z,5.67
2023-02-04T04:10:21.420Z,5.65
2023-02-04T04:12:47.730Z,5.61
2023-02-04T04:15:14.048Z,5.60
2023-02-04T04:17:40.390Z,5.58
2023-02-04T04:20:07.107Z,5.56
2023-02-04T04:22:33.439Z,5.56
2023-02-04T04:25:01.091Z,5.55
2023-02-04T04:27:27.394Z,5.59
2023-02-04T04:29:53.682Z,5.62
2023-02-04T04:32:19.999Z,5.62
2023-02-04T04:34:46.317Z,5.63
2023-02-04T04:37:12.651Z,5.61
2023-02-04T04:39:38.948Z,5.62
2023-02-04T04:42:06.613Z,5.60
2023-02-04T04:44:32.927Z,5.63
2023-02-04T04:46:59.281Z,5.63
2023-02-04T04:49:25.680Z,5.60
2023-02-04T04:51:51.970Z,5.60
2023-02-04T04:54:18.288Z,5.61
2023-02-04T04:56:44.606Z,5.64
2023-02-04T04:59:12.329Z,5.68
2023-02-04T05:01:38.737Z,5.69
2023-02-04T05:04:05.167Z,5.75
2023-02-04T05:06:31.472Z,5.79
2023-02-04T05:08:57.762Z,5.84
2023-02-04T05:11:24.075Z,5.90
2023-02-04T05:13:50.382Z,5.95
2023-02-04T05:16:18.049Z,5.97
2023-02-04T05:18:44.354Z,5.99
2023-02-04T05:21:10.682Z,6.04
2023-02-04T05:23:37.039Z,6.05
2023-02-04T05:26:03.444Z,6.09
2023-02-04T05:28:29.806Z,6.14
2023-02-04T05:30:56.196Z,6.16
2023-02-04T05:33:23.888Z,6.16
2023-02-04T05:35:50.173Z,6.19
2023-02-04T05:38:16.486Z,6.21
2023-02-04T05:40:42.782Z,6.22
2023-02-04T05:43:09.139Z,6.23
2023-02-04T05:45:35.511Z,6.21
2023-02-04T05:48:01.879Z,6.21
2023-02-04T05:50:29.780Z,6.26
2023-02-04T05:52:56.279Z,6.27
2023-02-04T05:55:22.627Z,6.25
2023-02-04T05:57:48.967Z,6.25
2023-02-04T06:00:15.305Z,6.25
2023-02-04T06:02:41.653Z,6.26
2023-02-04T06:05:08.204Z,6.24
2023-02-04T06:07:35.926Z,6.23
2023-02-04T06:10:02.313Z,6.22
2023-02-04T06:12:28.734Z,6.24
2023-02-04T06:14:55.025Z,6.23
2023-02-04T06:17:21.355Z,6.24
2023-02-04T06:19:47.704Z,6.25
2023-02-04T06:22:14.035Z,6.25
2023-02-04T06:24:41.690Z,6.26
2023-02-04T06:27:08.032Z,6.28
2023-02-04T06:29:34.355Z,6.32
2023-02-04T06:32:00.725Z,6.34
2023-02-04T06:34:27.062Z,6.33
2023-02-04T06:36:53.378Z,6.33
2023-02-04T06:39:19.657Z,6.33
2023-02-04T06:41:47.352Z,6.34
2023-02-04T06:44:13.689Z,6.34
2023-02-04T06:46:39.996Z,6.44
2023-02-04T06:49:06.299Z,6.36
2023-02-04T06:51:32.615Z,6.37
2023-02-04T06:53:58.898Z,6.34
2023-02-04T06:56:25.206Z,6.30
2023-02-04T06:58:52.853Z,6.36
2023-02-04T07:01:19.230Z,6.33
2023-02-04T07:03:45.563Z,6.33
2023-02-04T07:06:11.837Z,6.39
2023-02-04T07:08:38.135Z,6.37
2023-02-04T07:11:04.534Z,6.42
2023-02-04T07:13:30.840Z,6.35
2023-02-04T07:15:58.556Z,6.30
2023-02-04T07:18:24.862Z,6.30
2023-02-04T07:20:51.157Z,6.39
2023-02-04T07:23:17.488Z,6.34
2023-02-04T07:25:43.786Z,6.35
2023-02-04T07:28:10.139Z,6.29
2023-02-04T07:30:36.648Z,6.33
2023-02-04T07:33:04.362Z,6.34
2023-02-04T07:35:30.697Z,6.34
2023-02-04T07:37:57.026Z,6.36
2023-02-04T07:40:23.300Z,6.32
2023-02-04T07:42:49.608Z,6.32
2023-02-04T07:45:16.138Z,6.32
2023-02-04T07:47:42.478Z,6.35
2023-02-04T07:50:10.247Z,6.37
2023-02-04T07:52:36.545Z,6.40
2023-02-04T07:55:03.150Z,6.43
2023-02-04T07:57:29.472Z,6.47
2023-02-04T07:59:55.812Z,6.45
2023-02-04T08:02:22.301Z,6.44
2023-02-04T08:04:48.654Z,6.46
2023-02-04T08:07:16.444Z,6.47
2023-02-04T08:09:42.777Z,6.53
2023-02-04T08:12:09.066Z,6.56
2023-02-04T08:14:35.353Z,6.61
2023-02-04T08:17:01.680Z,6.64
2023-02-04T08:19:27.981Z,6.66
2023-02-04T08:21:54.276Z,6.69
2023-02-04T08:24:21.901Z,6.73
2023-02-04T08:26:48.201Z,6.74
2023-02-04T08:29:14.509Z,6.77
2023-02-04T08:31:40.974Z,6.76
2023-02-04T08:34:07.378Z,6.79
2023-02-04T08:36:33.748Z,6.81
2023-02-04T08:39:00.119Z,6.85
2023-02-04T08:41:27.788Z,6.87
2023-02-04T08:43:54.115Z,6.88
2023-02-04T08:46:20.472Z,6.90
2023-02-04T08:48:46.779Z,6.88
2023-02-04T08:51:13.109Z,6.89
2023-02-04T08:53:39.455Z,6.94
2023-02-04T08:56:06.211Z,6.94
2023-02-04T08:58:33.861Z,6.97
2023-02-04T09:01:00.261Z,7.00
2023-02-04T09:03:26.587Z,7.04
2023-02-04T09:05:52.889Z,7.09
2023-02-04T09:08:19.177Z,7.12
2023-02-04T09:10:45.493Z,7.14
2023-02-04T09:13:11.831Z,7.18
2023-02-04T09:15:39.494Z,7.19
2023-02-04T09:18:05.806Z,7.22
2023-02-04T09:20:32.435Z,7.26
2023-02-04T09:22:59.008Z,7.33
2023-02-04T09:25:25.410Z,7.36
2023-02-04T09:27:51.803Z,7.30
2023-02-04T09:30:18.136Z,7.32
2023-02-04T09:32:45.789Z,7.35
2023-02-04T09:35:12.122Z,7.37
2023-02-04T09:37:38.434Z,7.44
2023-02-04T09:40:05.145Z,7.47
2023-02-04T09:42:31.486Z,7.52
2023-02-04T09:44:57.846Z,7.54
2023-02-04T09:47:25.247Z,7.57
2023-02-04T09:49:52.935Z,7.62
2023-02-04T09:52:19.514Z,7.67
2023-02-04T09:54:46.072Z,7.68
2023-02-04T09:57:16.745Z,7.70
2023-02-04T09:59:44.037Z,7.77
2023-02-04T10:02:19.856Z,7.81
2023-02-04T10:04:46.176Z,7.82
2023-02-04T10:07:22.829Z,7.84
2023-02-04T10:09:49.185Z,7.90
2023-02-04T10:12:15.722Z,7.90
2023-02-04T10:14:42.348Z,7.93
2023-02-04T10:17:09.935Z,7.98
2023-02-04T10:19:36.415Z,8.05
2023-02-04T10:22:03.630Z,8.09
2023-02-04T10:24:31.316Z,8.11
2023-02-04T10:27:07.021Z,8.19
2023-02-04T10:29:33.350Z,8.27
2023-02-04T10:31:59.750Z,8.36
2023-02-04T10:34:33.937Z,8.49
2023-02-04T10:37:11.011Z,8.63
2023-02-04T10:39:42.045Z,8.78
2023-02-04T10:42:19.642Z,8.83
2023-02-04T10:44:46.609Z,8.81
2023-02-04T10:47:16.157Z,8.75
2023-02-04T10:49:51.327Z,8.73
2023-02-04T10:52:19.810Z,8.73
2023-02-04T10:54:47.649Z,8.76
2023-02-04T10:57:17.019Z,8.85
2023-02-04T10:59:43.824Z,8.92
2023-02-04T11:02:25.989Z,8.91
2023-02-04T11:04:53.022Z,8.98
2023-02-04T11:07:19.591Z,9.04
2023-02-04T11:09:48.725Z,9.07
2023-02-04T11:12:20.485Z,9.12
2023-02-04T11:14:54.828Z,9.20
2023-02-04T11:17:21.139Z,9.26
2023-02-04T11:19:47.447Z,9.41
2023-02-04T11:22:23.776Z,9.43
2023-02-04T11:24:51.673Z,9.45
2023-02-04T11:27:22.525Z,9.37
2023-02-04T11:29:49.280Z,9.31
2023-02-04T11:32:29.186Z,9.35
2023-02-04T11:35:05.710Z,9.35
2023-02-04T11:37:36.794Z,9.40
2023-02-04T11:40:17.141Z,9.42
2023-02-04T11:42:43.635Z,9.51
2023-02-04T11:45:13.692Z,9.52
2023-02-04T11:47:40.141Z,9.57
2023-02-04T11:50:14.010Z,9.56
2023-02-04T11:52:40.530Z,9.63
2023-02-04T11:55:06.960Z,9.59
2023-02-04T11:57:39.446Z,9.67
2023-02-04T12:00:06.762Z,9.70
2023-02-04T12:02:41.253Z,9.76
2023-02-04T12:05:11.672Z,9.84
2023-02-04T12:07:38.297Z,9.89
2023-02-04T12:10:11.084Z,9.97
2023-02-04T12:12:42.606Z,10.02
2023-02-04T12:15:14.179Z,9.95
2023-02-04T12:17:40.518Z,10.00
2023-02-04T12:20:07.123Z,10.05
2023-02-04T12:22:33.406Z,10.05
2023-02-04T12:24:59.677Z,10.07
2023-02-04T12:27:25.984Z,10.13
2023-02-04T12:29:53.641Z,10.16
2023-02-04T12:32:19.915Z,10.19
2023-02-04T12:34:46.266Z,10.21
2023-02-04T12:37:12.581Z,10.20
2023-02-04T12:39:38.910Z,10.24
2023-02-04T12:42:05.298Z,10.31
2023-02-04T12:44:31.614Z,10.31
2023-02-04T12:46:59.299Z,10.35
2023-02-04T12:49:25.679Z,10.34
2023-02-04T12:51:52.018Z,10.36
2023-02-04T12:54:18.338Z,10.31
2023-02-04T12:56:44.674Z,10.30
2023-02-04T12:59:11.014Z,10.26
2023-02-04T13:01:37.334Z,10.18
2023-02-04T13:04:05.216Z,10.20
2023-02-04T13:06:31.666Z,10.14
2023-02-04T13:08:57.965Z,10.11
2023-02-04T13:11:24.294Z,10.09
2023-02-04T13:13:50.639Z,10.10
2023-02-04T13:16:16.965Z,10.14
2023-02-04T13:18:43.331Z,10.13
2023-02-04T13:21:11.004Z,10.15
2023-02-04T13:23:37.300Z,10.18
2023-02-04T13:26:03.671Z,10.18
2023-02-04T13:28:29.995Z,10.15
2023-02-04T13:30:56.364Z,10.13
2023-02-04T13:33:22.685Z,10.12
2023-02-04T13:35:49.038Z,10.10
2023-02-04T13:38:16.915Z,10.09
2023-02-04T13:40:43.254Z,10.10
2023-02-04T13:43:09.695Z,10.12
2023-02-04T13:45:36.204Z,10.11
2023-02-04T13:48:02.695Z,10.13
2023-02-04T13:50:29.022Z,10.16
2023-02-04T13:52:55.327Z,10.25
2023-02-04T13:55:23.077Z,10.32
2023-02-04T13:57:49.371Z,10.36
2023-02-04T14:00:15.757Z,10.42
2023-02-04T14:02:42.057Z,10.48
2023-02-04T14:05:08.354Z,10.50
2023-02-04T14:07:34.643Z,10.56
2023-02-04T14:10:01.064Z,10.63
2023-02-04T14:12:28.743Z,10.66
2023-02-04T14:14:55.062Z,10.68
2023-02-04T14:17:21.417Z,10.71
2023-02-04T14:19:47.716Z,10.74
2023-02-04T14:22:14.004Z,10.71
2023-02-04T14:24:40.321Z,10.74
2023-02-04T14:27:06.645Z,10.72
2023-02-04T14:29:34.351Z,10.59
2023-02-04T14:32:00.769Z,10.53
2023-02-04T14:34:27.073Z,10.44
2023-02-04T14:36:53.378Z,10.37
2023-02-04T14:39:19.671Z,10.30
2023-02-04T14:41:46.020Z,10.30
2023-02-04T14:44:12.337Z,10.21
2023-02-04T14:46:40.016Z,10.16
2023-02-04T14:49:06.309Z,10.13
2023-02-04T14:51:32.659Z,10.16
2023-02-04T14:53:58.981Z,10.14
2023-02-04T14:56:25.267Z,10.14
2023-02-04T14:58:51.594Z,10.16
2023-02-04T15:01:17.923Z,10.16
2023-02-04T15:03:45.617Z,10.12
2023-02-04T15:06:11.931Z,10.12
2023-02-04T15:08:38.254Z,10.09
2023-02-04T15:11:04.803Z,10.10
2023-02-04T15:13:31.108Z,10.08
2023-02-04T15:15:57.445Z,10.05
2023-02-04T15:18:24.041Z,10.03
2023-02-04T15:20:51.655Z,10.01
2023-02-04T15:23:17.943Z,10.00
2023-02-04T15:25:44.221Z,9.97
2023-02-04T15:28:12.187Z,9.92
2023-02-04T15:30:38.812Z,9.91
2023-02-04T15:33:05.197Z,9.91
2023-02-04T15:35:31.520Z,9.89
2023-02-04T15:37:59.174Z,9.85
2023-02-04T15:40:25.577Z,9.83
2023-02-04T15:42:51.877Z,9.82
2023-02-04T15:45:18.224Z,9.79
2023-02-04T15:47:44.545Z,9.78
2023-02-04T15:50:10.946Z,9.77
2023-02-04T15:52:37.319Z,9.76
2023-02-04T15:55:05.278Z,9.71
2023-02-04T15:57:31.602Z,9.69
2023-02-04T15:59:57.955Z,9.67
2023-02-04T16:02:24.323Z,9.62
2023-02-04T16:04:50.662Z,9.62
2023-02-04T16:07:17.009Z,9.60
2023-02-04T16:09:43.302Z,9.57
2023-02-04T16:12:10.971Z,9.56
2023-02-04T16:14:37.330Z,9.48
2023-02-04T16:17:03.674Z,9.47
2023-02-04T16:19:29.979Z,9.43
2023-02-04T16:21:56.290Z,9.41
2023-02-04T16:24:22.633Z,9.36
2023-02-04T16:26:48.947Z,9.36
2023-02-04T16:29:16.586Z,9.34
2023-02-04T16:31:42.959Z,9.32
2023-02-04T16:34:09.259Z,9.31
2023-02-04T16:36:36.446Z,9.29
2023-02-04T16:39:02.782Z,9.27
2023-02-04T16:41:29.074Z,9.25
2023-02-04T16:43:55.432Z,9.25
2023-02-04T16:46:23.253Z,9.23
2023-02-04T16:48:49.565Z,9.20
2023-02-04T16:51:15.865Z,9.18
2023-02-04T16:53:42.193Z,9.17
2023-02-04T16:56:08.528Z,9.15
2023-02-04T16:58:34.863Z,9.12
2023-02-04T17:01:01.186Z,9.12
2023-02-04T17:03:28.932Z,9.10
2023-02-04T17:05:55.287Z,9.08
2023-02-04T17:08:30.616Z,9.06
2023-02-04T17:10:56.944Z,9.05
2023-02-04T17:13:23.312Z,9.02
2023-02-04T17:15:49.686Z,8.98
2023-02-04T17:18:16.011Z,8.98
2023-02-04T17:20:43.719Z,8.97
2023-02-04T17:23:10.540Z,8.96
2023-02-04T17:25:36.829Z,8.95
2023-02-04T17:28:03.214Z,8.97
2023-02-04T17:30:29.608Z,8.97
2023-02-04T17:32:55.938Z,8.97
2023-02-04T17:35:22.258Z,8.98
2023-02-04T17:37:49.884Z,8.97
2023-02-04T17:40:16.352Z,8.98
2023-02-04T17:42:42.681Z,8.99
2023-02-04T17:45:10.516Z,9.00
2023-02-04T17:47:37.279Z,9.02
2023-02-04T17:50:04.564Z,8.99
2023-02-04T17:52:31.038Z,9.00
2023-02-04T17:54:59.172Z,9.00
2023-02-04T17:57:25.511Z,9.01
2023-02-04T17:59:52.043Z,9.00
2023-02-04T18:02:22.438Z,9.00
2023-02-04T18:04:49.156Z,9.00
2023-02-04T18:07:15.493Z,8.98
2023-02-04T18:09:41.883Z,8.97
2023-02-04T18:12:13.929Z,8.95
2023-02-04T18:14:42.645Z,8.94
2023-02-04T18:17:10.264Z,8.93
2023-02-04T18:19:37.309Z,8.92
2023-02-04T18:22:06.014Z,8.93
2023-02-04T18:24:34.171Z,8.93
2023-02-04T18:27:01.709Z,8.93
2023-02-04T18:29:31.724Z,8.93
2023-02-04T18:31:59.772Z,8.92
2023-02-04T18:34:28.040Z,8.91
2023-02-04T18:36:54.709Z,8.91
2023-02-04T18:39:24.718Z,8.90
2023-02-04T18:41:51.229Z,8.89
2023-02-04T18:44:26.094Z,8.89
2023-02-04T18:46:54.251Z,8.89
2023-02-04T18:49:22.834Z,8.88
2023-02-04T18:51:49.547Z,8.87
2023-02-04T18:54:33.526Z,8.85
2023-02-04T18:57:18.481Z,8.86
2023-02-04T18:59:44.835Z,8.86
2023-02-04T19:02:32.860Z,8.85
2023-02-04T19:05:13.323Z,8.83
2023-02-04T19:07:40.424Z,8.82
2023-02-04T19:10:24.210Z,8.79
2023-02-04T19:12:52.907Z,8.75
2023-02-04T19:15:29.995Z,8.68
2023-02-04T19:17:57.683Z,8.66
2023-02-04T19:20:25.660Z,8.65
2023-02-04T19:22:53.874Z,8.63
2023-02-04T19:25:25.439Z,8.62
2023-02-04T19:27:53.683Z,8.59
2023-02-04T19:30:40.428Z,8.58
2023-02-04T19:33:13.880Z,8.57
2023-02-04T19:35:44.331Z,8.53
2023-02-04T19:38:22.836Z,8.51
2023-02-04T19:40:51.252Z,8.50
2023-02-04T19:43:19.822Z,8.48
2023-02-04T19:45:46.344Z,8.49
2023-02-04T19:48:20.538Z,8.48
2023-02-04T19:50:51.725Z,8.47
2023-02-04T19:53:19.740Z,8.43
2023-02-04T19:55:46.536Z,8.46
2023-02-04T19:58:16.057Z,8.50
2023-02-04T20:00:44.343Z,8.57
2023-02-04T20:03:14.812Z,8.50
2023-02-04T20:05:41.302Z,8.30
2023-02-04T20:08:24.223Z,8.21
2023-02-04T20:10:50.562Z,8.19
2023-02-04T20:13:18.989Z,8.19
2023-02-04T20:15:45.284Z,8.20
2023-02-04T20:18:14.152Z,8.20
2023-02-04T20:20:42.237Z,8.18
2023-02-04T20:23:23.042Z,8.18
2023-02-04T20:25:49.452Z,8.16
2023-02-04T20:28:17.814Z,8.14
2023-02-04T20:30:44.616Z,8.15
2023-02-04T20:33:22.501Z,8.15
2023-02-04T20:36:19.185Z,8.13
2023-02-04T20:38:47.199Z,8.11
2023-02-04T20:41:15.867Z,8.11
2023-02-04T20:43:42.779Z,8.12
2023-02-04T20:46:13.807Z,8.12
2023-02-04T20:48:40.398Z,8.13
2023-02-04T20:51:15.400Z,8.12
2023-02-04T20:53:47.435Z,8.11
2023-02-04T20:56:25.357Z,8.11
2023-02-04T20:58:53.945Z,8.08
2023-02-04T21:01:24.760Z,8.10
2023-02-04T21:03:51.140Z,8.06
2023-02-04T21:06:21.385Z,8.06
2023-02-04T21:08:49.287Z,8.02
2023-02-04T21:11:15.663Z,7.99
2023-02-04T21:13:43.387Z,8.02
2023-02-04T21:16:09.817Z,8.03
2023-02-04T21:18:36.183Z,8.03
2023-02-04T21:21:02.638Z,8.02
2023-02-04T21:23:29.004Z,8.02
2023-02-04T21:25:55.281Z,8.01
2023-02-04T21:28:21.705Z,8.02
2023-02-04T21:30:49.534Z,8.03
2023-02-04T21:33:17.086Z,8.04
2023-02-04T21:35:43.608Z,8.06
2023-02-04T21:38:09.957Z,8.04
2023-02-04T21:40:37.121Z,8.05
2023-02-04T21:43:04.045Z,8.04
2023-02-04T21:45:30.737Z,8.01
2023-02-04T21:47:58.937Z,7.99
2023-02-04T21:50:25.270Z,7.99
2023-02-04T21:52:51.597Z,7.97
2023-02-04T21:55:19.063Z,7.98
2023-02-04T21:57:45.442Z,7.97
2023-02-04T22:00:12.236Z,7.96
2023-02-04T22:02:38.536Z,7.97
2023-02-04T22:05:06.786Z,8.00
2023-02-04T22:07:33.272Z,8.04
2023-02-04T22:09:59.647Z,7.91
2023-02-04T22:12:25.935Z,7.88
2023-02-04T22:14:52.265Z,7.88
2023-02-04T22:17:18.575Z,7.89
2023-02-04T22:19:44.857Z,7.91
2023-02-04T22:22:12.570Z,7.92
2023-02-04T22:24:38.893Z,7.94
2023-02-04T22:27:05.387Z,7.92
2023-02-04T22:29:31.706Z,7.94
2023-02-04T22:31:58.044Z,7.92
2023-02-04T22:34:24.417Z,7.91
2023-02-04T22:36:50.839Z,7.90
2023-02-04T22:39:18.494Z,7.86
2023-02-04T22:41:44.928Z,7.83
2023-02-04T22:44:11.248Z,7.85
2023-02-04T22:46:37.584Z,7.83
2023-02-04T22:49:03.896Z,7.85
2023-02-04T22:51:30.226Z,7.82
2023-02-04T22:53:56.571Z,7.79
2023-02-04T22:56:24.344Z,7.76
2023-02-04T22:58:52.694Z,7.76
2023-02-04T23:01:19.286Z,7.75
2023-02-04T23:03:45.707Z,7.77
2023-02-04T23:06:12.048Z,7.77
2023-02-04T23:08:38.459Z,7.74
2023-02-04T23:11:04.965Z,7.75
2023-02-04T23:13:32.804Z,7.76
2023-02-04T23:15:59.192Z,7.74
2023-02-04T23:18:25.555Z,7.75
2023-02-04T23:20:51.877Z,7.73
2023-02-04T23:23:18.530Z,7.73
2023-02-04T23:25:45.217Z,7.70
2023-02-04T23:28:11.651Z,7.67
2023-02-04T23:30:39.384Z,7.67
2023-02-04T23:33:05.750Z,7.65
2023-02-04T23:35:32.586Z,7.63
2023-02-04T23:37:59.162Z,7.64
2023-02-04T23:40:25.441Z,7.61
2023-02-04T23:42:51.801Z,7.62
2023-02-04T23:45:18.187Z,7.64
2023-02-04T23:47:45.997Z,7.65
2023-02-04T23:50:12.349Z,7.65
2023-02-04T23:52:39.734Z,7.66
2023-02-04T23:55:06.475Z,7.65
2023-02-04T23:57:32.958Z,7.64
2023-02-04T23:59:59.288Z,7.63
